createdAt,value
2019-01-09T00:00:29.985Z,25.47
2019-01-09T00:01:30.005Z,25.45
2019-01-09T00:02:30.042Z,25.47
2019-01-09T00:03:30.194Z,25.45
2019-01-09T00:04:30.000Z,25.47
2019-01-09T00:05:30.000Z,25.45
2019-01-09T00:06:29.999Z,25.43
2019-01-09T00:07:30.003Z,25.43
2019-01-09T00:08:30.501Z,25.47
2019-01-09T00:09:30.008Z,25.42
2019-01-09T00:10:30.013Z,25.45
2019-01-09T00:11:30.013Z,25.47
2019-01-09T00:12:30.014Z,25.50
2019-01-09T00:13:30.168Z,25.47
2019-01-09T00:14:30.270Z,25.40
2019-01-09T00:15:30.022Z,25.43
2019-01-09T00:16:30.024Z,25.50
2019-01-09T00:17:30.027Z,25.47
2019-01-09T00:18:30.080Z,25.47
2019-01-09T00:19:30.034Z,25.40
2019-01-09T00:20:30.033Z,25.42
2019-01-09T00:21:30.387Z,25.43
2019-01-09T00:22:30.041Z,25.46
2019-01-09T00:23:30.142Z,25.46
2019-01-09T00:24:30.043Z,25.43
2019-01-09T00:25:30.096Z,25.47
2019-01-09T00:26:30.048Z,25.46
2019-01-09T00:27:30.252Z,25.45
2019-01-09T00:28:30.154Z,25.40
2019-01-09T00:29:30.105Z,25.46
2019-01-09T00:30:30.058Z,25.43
2019-01-09T00:31:30.110Z,25.47
2019-01-09T00:32:30.170Z,25.51
2019-01-09T00:33:30.067Z,25.51
2019-01-09T00:34:30.073Z,25.47
2019-01-09T00:35:37.177Z,25.46
2019-01-09T00:36:30.082Z,25.46
2019-01-09T00:37:30.085Z,25.50
2019-01-09T00:38:30.085Z,25.46
2019-01-09T00:39:30.085Z,25.50
2019-01-09T00:40:30.086Z,25.43
2019-01-09T00:41:30.184Z,25.47
2019-01-09T00:42:30.087Z,25.46
2019-01-09T00:43:30.089Z,25.47
2019-01-09T00:44:30.095Z,25.47
2019-01-09T00:45:30.093Z,25.46
2019-01-09T00:46:30.095Z,25.42
2019-01-09T00:47:30.099Z,25.43
2019-01-09T00:48:30.100Z,25.51
2019-01-09T00:49:30.103Z,25.51
2019-01-09T00:50:30.108Z,25.47
2019-01-09T00:51:30.108Z,25.51
2019-01-09T00:52:30.109Z,25.47
2019-01-09T00:53:30.113Z,25.40
2019-01-09T00:54:30.115Z,25.50
2019-01-09T00:55:30.119Z,25.46
2019-01-09T00:56:30.121Z,25.43
2019-01-09T00:57:30.122Z,25.47
2019-01-09T00:58:30.126Z,25.45
2019-01-09T00:59:30.129Z,25.47
2019-01-09T01:00:30.129Z,25.45
2019-01-09T01:01:30.131Z,25.46
2019-01-09T01:02:30.135Z,25.43
2019-01-09T01:03:30.140Z,25.45
2019-01-09T01:04:30.139Z,25.46
2019-01-09T01:05:30.142Z,25.46
2019-01-09T01:06:30.145Z,25.50
2019-01-09T01:07:30.148Z,25.43
2019-01-09T01:08:30.151Z,25.46
2019-01-09T01:09:30.153Z,25.47
2019-01-09T01:10:30.153Z,25.46
2019-01-09T01:11:30.260Z,25.51
2019-01-09T01:12:30.159Z,25.45
2019-01-09T01:13:30.161Z,25.42
2019-01-09T01:14:30.169Z,25.42
2019-01-09T01:15:30.170Z,25.46
2019-01-09T01:16:30.418Z,25.50
2019-01-09T01:17:30.173Z,25.43
2019-01-09T01:18:30.174Z,25.50
2019-01-09T01:19:30.175Z,25.46
2019-01-09T01:20:30.177Z,25.46
2019-01-09T01:21:30.181Z,25.47
2019-01-09T01:22:30.180Z,25.46
2019-01-09T01:23:30.186Z,25.47
2019-01-09T01:24:30.187Z,25.46
2019-01-09T01:25:30.190Z,25.47
2019-01-09T01:26:30.193Z,25.42
2019-01-09T01:27:30.194Z,25.39
2019-01-09T01:28:30.247Z,25.47
2019-01-09T01:29:30.249Z,25.46
2019-01-09T01:30:30.203Z,25.46
2019-01-09T01:31:30.262Z,25.45
2019-01-09T01:32:30.206Z,25.43
2019-01-09T01:33:30.208Z,25.46
2019-01-09T01:34:30.220Z,25.47
2019-01-09T01:35:30.216Z,25.46
2019-01-09T01:36:30.216Z,25.50
2019-01-09T01:37:30.369Z,25.46
2019-01-09T01:38:30.221Z,25.51
2019-01-09T01:39:30.223Z,25.40
2019-01-09T01:40:30.225Z,25.47
2019-01-09T01:41:30.229Z,25.51
2019-01-09T01:42:30.230Z,25.45
2019-01-09T01:43:30.233Z,25.45
2019-01-09T01:44:30.487Z,25.47
2019-01-09T01:45:30.237Z,25.45
2019-01-09T01:46:30.246Z,25.45
2019-01-09T01:47:30.243Z,25.46
2019-01-09T01:48:30.244Z,25.46
2019-01-09T01:49:30.258Z,25.40
2019-01-09T01:50:30.250Z,25.50
2019-01-09T01:51:30.255Z,25.47
2019-01-09T01:52:30.254Z,25.46
2019-01-09T01:53:30.257Z,25.46
2019-01-09T01:54:30.259Z,25.47
2019-01-09T01:55:30.262Z,25.47
2019-01-09T01:56:30.267Z,25.46
2019-01-09T01:57:30.268Z,25.45
2019-01-09T01:58:30.268Z,25.51
2019-01-09T01:59:30.372Z,25.51
2019-01-09T02:00:30.275Z,25.47
2019-01-09T02:01:30.278Z,25.50
2019-01-09T02:02:30.279Z,25.47
2019-01-09T02:03:30.281Z,25.47
2019-01-09T02:04:30.283Z,25.40
2019-01-09T02:05:30.286Z,25.50
2019-01-09T02:06:30.289Z,25.51
2019-01-09T02:07:30.291Z,25.46
2019-01-09T02:08:30.293Z,25.50
2019-01-09T02:09:30.295Z,25.46
2019-01-09T02:10:30.298Z,25.45
2019-01-09T02:11:30.304Z,25.45
2019-01-09T02:12:30.318Z,25.47
2019-01-09T02:13:30.307Z,25.51
2019-01-09T02:14:30.358Z,25.43
2019-01-09T02:15:30.310Z,25.45
2019-01-09T02:16:30.412Z,25.43
2019-01-09T02:17:30.413Z,25.46
2019-01-09T02:18:30.317Z,25.43
2019-01-09T02:19:30.320Z,25.50
2019-01-09T02:20:30.321Z,25.45
2019-01-09T02:21:30.332Z,25.45
2019-01-09T02:22:30.326Z,25.46
2019-01-09T02:23:30.329Z,25.46
2019-01-09T02:24:30.331Z,25.51
2019-01-09T02:25:30.334Z,25.47
2019-01-09T02:26:30.336Z,25.45
2019-01-09T02:27:30.339Z,25.47
2019-01-09T02:28:30.341Z,25.50
2019-01-09T02:29:30.494Z,25.43
2019-01-09T02:30:30.347Z,25.47
2019-01-09T02:31:30.349Z,25.45
2019-01-09T02:32:30.351Z,25.46
2019-01-09T02:33:30.357Z,25.46
2019-01-09T02:34:30.359Z,25.51
2019-01-09T02:35:30.359Z,25.42
2019-01-09T02:36:30.360Z,25.40
2019-01-09T02:37:30.613Z,25.52
2019-01-09T02:38:30.366Z,25.47
2019-01-09T02:39:30.369Z,25.50
2019-01-09T02:40:30.420Z,25.45
2019-01-09T02:41:30.372Z,25.50
2019-01-09T02:42:30.391Z,25.42
2019-01-09T02:43:30.377Z,25.50
2019-01-09T02:44:32.414Z,25.46
2019-01-09T02:45:30.383Z,25.46
2019-01-09T02:46:30.735Z,25.45
2019-01-09T02:47:30.438Z,25.50
2019-01-09T02:48:30.539Z,25.47
2019-01-09T02:49:30.393Z,25.46
2019-01-09T02:50:30.394Z,25.39
2019-01-09T02:51:30.404Z,25.46
2019-01-09T02:52:30.399Z,25.46
2019-01-09T02:53:30.402Z,25.50
2019-01-09T02:54:30.407Z,25.40
2019-01-09T02:55:30.410Z,25.47
2019-01-09T02:56:30.407Z,25.50
2019-01-09T02:57:30.412Z,25.43
2019-01-09T02:58:30.415Z,25.45
2019-01-09T02:59:30.416Z,25.42
2019-01-09T03:00:30.421Z,25.43
2019-01-09T03:01:30.421Z,25.46
2019-01-09T03:02:30.474Z,25.46
2019-01-09T03:03:30.427Z,25.47
2019-01-09T03:04:30.433Z,25.46
2019-01-09T03:05:30.433Z,25.47
2019-01-09T03:06:30.434Z,25.50
2019-01-09T03:07:30.436Z,25.45
2019-01-09T03:08:30.437Z,25.50
2019-01-09T03:09:30.440Z,25.45
2019-01-09T03:10:30.442Z,25.45
2019-01-09T03:11:30.449Z,25.51
2019-01-09T03:12:30.547Z,25.43
2019-01-09T03:13:30.499Z,25.47
2019-01-09T03:14:30.559Z,25.42
2019-01-09T03:15:30.454Z,25.45
2019-01-09T03:16:30.461Z,25.43
2019-01-09T03:17:30.460Z,25.43
2019-01-09T03:18:30.461Z,25.50
2019-01-09T03:19:30.515Z,25.50
2019-01-09T03:20:30.465Z,25.50
2019-01-09T03:21:30.466Z,25.40
2019-01-09T03:22:30.472Z,25.46
2019-01-09T03:23:30.525Z,25.54
2019-01-09T03:24:30.476Z,25.43
2019-01-09T03:25:30.479Z,25.39
2019-01-09T03:26:30.731Z,25.45
2019-01-09T03:27:30.485Z,25.42
2019-01-09T03:28:30.495Z,25.47
2019-01-09T03:29:30.488Z,25.40
2019-01-09T03:30:30.491Z,25.43
2019-01-09T03:31:30.498Z,25.45
2019-01-09T03:32:30.599Z,25.46
2019-01-09T03:33:30.547Z,25.50
2019-01-09T03:34:30.500Z,25.40
2019-01-09T03:35:30.502Z,25.51
2019-01-09T03:36:32.779Z,25.52
2019-01-09T03:37:30.506Z,25.43
2019-01-09T03:38:30.511Z,25.40
2019-01-09T03:39:30.513Z,25.38
2019-01-09T03:40:30.513Z,25.47
2019-01-09T03:41:30.516Z,25.40
2019-01-09T03:42:30.518Z,25.42
2019-01-09T03:43:30.522Z,25.45
2019-01-09T03:44:30.523Z,25.42
2019-01-09T03:45:30.525Z,25.40
2019-01-09T03:46:30.529Z,25.43
2019-01-09T03:47:30.582Z,25.39
2019-01-09T03:48:30.533Z,25.40
2019-01-09T03:49:30.535Z,25.50
2019-01-09T03:50:30.543Z,25.40
2019-01-09T03:51:30.544Z,25.45
2019-01-09T03:52:30.542Z,25.38
2019-01-09T03:53:30.545Z,25.35
2019-01-09T03:54:30.549Z,25.38
2019-01-09T03:55:30.551Z,25.45
2019-01-09T03:56:30.553Z,25.45
2019-01-09T03:57:30.554Z,25.40
2019-01-09T03:58:30.557Z,25.43
2019-01-09T03:59:30.560Z,25.40
2019-01-09T04:00:30.562Z,25.43
2019-01-09T04:01:30.566Z,25.40
2019-01-09T04:02:30.571Z,25.51
2019-01-09T04:03:30.570Z,25.50
2019-01-09T04:04:30.571Z,25.47
2019-01-09T04:05:30.576Z,25.46
2019-01-09T04:06:30.582Z,25.45
2019-01-09T04:07:30.579Z,25.46
2019-01-09T04:08:30.581Z,25.42
2019-01-09T04:09:30.585Z,25.46
2019-01-09T04:10:30.591Z,25.50
2019-01-09T04:11:30.589Z,25.45
2019-01-09T04:12:30.640Z,25.45
2019-01-09T04:13:30.593Z,25.54
2019-01-09T04:14:30.595Z,25.40
2019-01-09T04:15:30.702Z,25.42
2019-01-09T04:16:30.600Z,25.47
2019-01-09T04:17:30.603Z,25.47
2019-01-09T04:18:30.608Z,25.38
2019-01-09T04:19:30.608Z,25.36
2019-01-09T04:20:30.610Z,25.50
2019-01-09T04:21:30.613Z,25.40
2019-01-09T04:22:30.615Z,25.46
2019-01-09T04:23:30.618Z,25.42
2019-01-09T04:24:30.760Z,25.46
2019-01-09T04:25:30.623Z,25.40
2019-01-09T04:26:30.625Z,25.52
2019-01-09T04:27:30.627Z,25.42
2019-01-09T04:28:30.630Z,25.54
2019-01-09T04:29:30.631Z,25.52
2019-01-09T04:30:30.636Z,25.40
2019-01-09T04:31:30.638Z,25.40
2019-01-09T04:32:30.639Z,25.35
2019-01-09T04:33:30.647Z,25.40
2019-01-09T04:34:30.645Z,25.35
2019-01-09T04:35:30.653Z,25.38
2019-01-09T04:36:30.851Z,25.40
2019-01-09T04:37:30.651Z,25.42
2019-01-09T04:38:30.653Z,25.38
2019-01-09T04:39:30.656Z,25.43
2019-01-09T04:40:30.658Z,25.42
2019-01-09T04:41:30.665Z,25.43
2019-01-09T04:42:30.663Z,25.39
2019-01-09T04:43:30.666Z,25.35
2019-01-09T04:44:30.820Z,25.47
2019-01-09T04:45:30.671Z,25.50
2019-01-09T04:46:30.672Z,25.45
2019-01-09T04:47:30.733Z,25.39
2019-01-09T04:48:30.677Z,25.51
2019-01-09T04:49:30.680Z,25.45
2019-01-09T04:50:30.787Z,25.45
2019-01-09T04:51:30.687Z,25.50
2019-01-09T04:52:30.687Z,25.42
2019-01-09T04:53:30.689Z,25.40
2019-01-09T04:54:30.692Z,25.39
2019-01-09T04:55:30.799Z,25.38
2019-01-09T04:56:30.696Z,25.39
2019-01-09T04:57:30.698Z,25.40
2019-01-09T04:58:30.701Z,25.43
2019-01-09T04:59:30.705Z,25.42
2019-01-09T05:00:30.705Z,25.36
2019-01-09T05:01:30.709Z,25.35
2019-01-09T05:02:30.711Z,25.39
2019-01-09T05:03:30.714Z,25.35
2019-01-09T05:04:30.723Z,25.43
2019-01-09T05:05:30.724Z,25.33
2019-01-09T05:06:30.725Z,25.28
2019-01-09T05:07:30.726Z,25.43
2019-01-09T05:08:30.727Z,25.28
2019-01-09T05:09:30.728Z,25.38
2019-01-09T05:10:30.734Z,25.38
2019-01-09T05:11:30.833Z,25.50
2019-01-09T05:12:30.734Z,25.42
2019-01-09T05:13:30.737Z,25.46
2019-01-09T05:14:30.740Z,25.45
2019-01-09T05:15:30.742Z,25.47
2019-01-09T05:16:30.744Z,25.43
2019-01-09T05:17:30.950Z,25.47
2019-01-09T05:18:30.749Z,25.45
2019-01-09T05:19:30.754Z,25.45
2019-01-09T05:20:30.756Z,25.51
2019-01-09T05:21:30.757Z,25.50
2019-01-09T05:22:30.764Z,25.47
2019-01-09T05:23:30.762Z,25.54
2019-01-09T05:24:30.764Z,25.46
2019-01-09T05:25:30.766Z,25.46
2019-01-09T05:26:30.912Z,25.54
2019-01-09T05:27:30.779Z,25.52
2019-01-09T05:28:30.773Z,25.57
2019-01-09T05:29:30.779Z,25.51
2019-01-09T05:30:30.778Z,25.45
2019-01-09T05:31:30.830Z,25.51
2019-01-09T05:32:30.783Z,25.57
2019-01-09T05:33:30.785Z,25.47
2019-01-09T05:34:30.788Z,25.55
2019-01-09T05:35:30.791Z,25.52
2019-01-09T05:36:30.794Z,25.47
2019-01-09T05:37:30.795Z,25.58
2019-01-09T05:38:30.796Z,25.52
2019-01-09T05:39:39.412Z,25.47
2019-01-09T05:40:30.808Z,25.46
2019-01-09T05:41:30.811Z,25.58
2019-01-09T05:42:30.807Z,25.54
2019-01-09T05:43:30.810Z,25.55
2019-01-09T05:44:30.811Z,25.57
2019-01-09T05:45:30.814Z,25.57
2019-01-09T05:46:30.816Z,25.55
2019-01-09T05:47:30.820Z,25.54
2019-01-09T05:48:30.822Z,25.60
2019-01-09T05:49:30.825Z,25.65
2019-01-09T05:50:30.826Z,25.58
2019-01-09T05:51:30.841Z,25.65
2019-01-09T05:52:30.831Z,25.60
2019-01-09T05:53:30.834Z,25.64
2019-01-09T05:54:30.840Z,25.62
2019-01-09T05:55:30.839Z,25.60
2019-01-09T05:56:30.844Z,25.60
2019-01-09T05:57:30.844Z,25.75
2019-01-09T05:58:30.847Z,25.76
2019-01-09T05:59:30.850Z,25.70
2019-01-09T06:00:30.951Z,25.62
2019-01-09T06:01:30.855Z,25.67
2019-01-09T06:02:30.907Z,25.73
2019-01-09T06:03:30.859Z,25.69
2019-01-09T06:04:30.860Z,25.67
2019-01-09T06:05:30.863Z,25.69
2019-01-09T06:06:30.866Z,25.76
2019-01-09T06:07:30.869Z,25.76
2019-01-09T06:08:30.921Z,25.76
2019-01-09T06:09:30.874Z,25.76
2019-01-09T06:10:30.877Z,25.80
2019-01-09T06:11:30.879Z,25.76
2019-01-09T06:12:30.881Z,25.75
2019-01-09T06:13:30.884Z,25.76
2019-01-09T06:14:30.889Z,25.79
2019-01-09T06:15:30.890Z,25.75
2019-01-09T06:16:30.895Z,25.75
2019-01-09T06:17:30.896Z,25.77
2019-01-09T06:18:30.897Z,25.76
2019-01-09T06:19:31.001Z,25.76
2019-01-09T06:20:30.902Z,25.76
2019-01-09T06:21:30.903Z,25.76
2019-01-09T06:22:30.907Z,25.73
2019-01-09T06:23:31.021Z,25.72
2019-01-09T06:24:30.912Z,25.73
2019-01-09T06:25:30.925Z,25.76
2019-01-09T06:26:31.002Z,25.77
2019-01-09T06:27:30.972Z,25.80
2019-01-09T06:28:30.923Z,25.75
2019-01-09T06:29:30.925Z,25.75
2019-01-09T06:30:31.135Z,25.75
2019-01-09T06:31:30.934Z,25.76
2019-01-09T06:32:31.033Z,25.73
2019-01-09T06:33:30.936Z,25.76
2019-01-09T06:34:30.939Z,25.67
2019-01-09T06:35:30.942Z,25.69
2019-01-09T06:36:30.946Z,25.70
2019-01-09T06:37:30.946Z,25.72
2019-01-09T06:38:30.949Z,25.69
2019-01-09T06:39:30.953Z,25.67
2019-01-09T06:40:30.956Z,25.70
2019-01-09T06:41:30.967Z,25.72
2019-01-09T06:42:30.959Z,25.70
2019-01-09T06:43:30.971Z,25.69
2019-01-09T06:44:31.066Z,25.76
2019-01-09T06:45:30.967Z,25.77
2019-01-09T06:46:30.970Z,25.72
2019-01-09T06:47:31.225Z,25.77
2019-01-09T06:48:30.976Z,25.79
2019-01-09T06:49:31.079Z,25.75
2019-01-09T06:50:31.082Z,25.75
2019-01-09T06:51:30.983Z,25.75
2019-01-09T06:52:30.985Z,25.75
2019-01-09T06:53:31.026Z,25.75
2019-01-09T06:54:31.013Z,25.79
2019-01-09T06:55:31.068Z,25.73
2019-01-09T06:56:30.995Z,25.75
2019-01-09T06:57:30.998Z,25.80
2019-01-09T06:58:31.001Z,25.75
2019-01-09T06:59:31.004Z,25.76
2019-01-09T07:00:31.006Z,25.76
2019-01-09T07:01:31.207Z,25.75
2019-01-09T07:02:32.314Z,25.76
2019-01-09T07:03:31.715Z,25.80
2019-01-09T07:04:31.117Z,25.77
2019-01-09T07:05:31.024Z,25.77
2019-01-09T07:06:31.076Z,25.79
2019-01-09T07:07:35.980Z,25.83
2019-01-09T07:08:31.027Z,25.79
2019-01-09T07:09:31.030Z,25.83
2019-01-09T07:10:31.133Z,25.79
2019-01-09T07:11:31.096Z,25.82
2019-01-09T07:12:31.287Z,25.82
2019-01-09T07:13:31.194Z,25.77
2019-01-09T07:14:31.045Z,25.76
2019-01-09T07:15:31.047Z,25.88
2019-01-09T07:16:31.049Z,25.85
2019-01-09T07:17:31.051Z,25.87
2019-01-09T07:18:31.054Z,25.85
2019-01-09T07:19:31.158Z,25.87
2019-01-09T07:20:31.061Z,25.90
2019-01-09T07:21:31.063Z,25.87
2019-01-09T07:22:31.114Z,25.90
2019-01-09T07:23:31.068Z,25.91
2019-01-09T07:24:31.269Z,25.88
2019-01-09T07:25:31.072Z,25.97
2019-01-09T07:26:31.074Z,25.95
2019-01-09T07:27:31.076Z,25.92
2019-01-09T07:28:31.079Z,25.92
2019-01-09T07:29:31.233Z,25.92
2019-01-09T07:30:31.487Z,25.92
2019-01-09T07:31:31.092Z,25.94
2019-01-09T07:32:31.593Z,25.94
2019-01-09T07:33:31.296Z,25.90
2019-01-09T07:34:31.107Z,25.90
2019-01-09T07:35:31.107Z,25.88
2019-01-09T07:36:31.110Z,25.94
2019-01-09T07:37:31.405Z,25.90
2019-01-09T07:38:31.608Z,25.91
2019-01-09T07:39:31.113Z,25.90
2019-01-09T07:40:31.115Z,25.92
2019-01-09T07:41:31.114Z,25.91
2019-01-09T07:42:31.218Z,25.88
2019-01-09T07:43:31.124Z,25.91
2019-01-09T07:44:31.175Z,25.90
2019-01-09T07:45:31.135Z,25.90
2019-01-09T07:46:31.429Z,25.88
2019-01-09T07:47:32.135Z,25.95
2019-01-09T07:48:31.487Z,25.90
2019-01-09T07:49:31.188Z,25.92
2019-01-09T07:50:31.140Z,25.90
2019-01-09T07:51:31.144Z,25.97
2019-01-09T07:52:31.147Z,25.99
2019-01-09T07:53:31.147Z,26.02
2019-01-09T07:54:31.350Z,25.98
2019-01-09T07:55:31.156Z,25.95
2019-01-09T07:56:31.256Z,26.02
2019-01-09T07:57:31.760Z,26.06
2019-01-09T07:58:31.312Z,25.97
2019-01-09T07:59:31.520Z,26.07
2019-01-09T08:00:31.167Z,25.95
2019-01-09T08:01:31.571Z,25.98
2019-01-09T08:02:31.946Z,25.92
2019-01-09T08:03:32.034Z,25.99
2019-01-09T08:04:32.523Z,25.98
2019-01-09T08:05:32.087Z,26.06
2019-01-09T08:06:31.786Z,26.06
2019-01-09T08:07:32.038Z,26.12
2019-01-09T08:08:31.289Z,26.10
2019-01-09T08:09:31.893Z,26.12
2019-01-09T08:10:31.544Z,26.06
2019-01-09T08:11:31.550Z,26.06
2019-01-09T08:12:31.852Z,26.05
2019-01-09T08:13:31.553Z,25.94
2019-01-09T08:14:31.556Z,26.02
2019-01-09T08:15:31.209Z,26.12
2019-01-09T08:16:31.213Z,26.10
2019-01-09T08:17:31.365Z,26.09
2019-01-09T08:18:31.217Z,26.06
2019-01-09T08:19:31.425Z,26.15
2019-01-09T08:20:31.236Z,26.07
2019-01-09T08:21:31.327Z,26.07
2019-01-09T08:22:31.329Z,26.10
2019-01-09T08:23:31.336Z,26.09
2019-01-09T08:24:31.333Z,26.10
2019-01-09T08:25:31.336Z,26.09
2019-01-09T08:26:31.248Z,26.17
2019-01-09T08:27:31.243Z,26.09
2019-01-09T08:28:31.444Z,26.13
2019-01-09T08:29:31.248Z,26.10
2019-01-09T08:30:31.355Z,26.17
2019-01-09T08:31:31.304Z,26.09
2019-01-09T08:32:31.606Z,26.15
2019-01-09T08:33:31.367Z,26.12
2019-01-09T08:34:31.363Z,26.12
2019-01-09T08:35:31.315Z,26.12
2019-01-09T08:36:31.318Z,26.13
2019-01-09T08:37:31.572Z,26.10
2019-01-09T08:38:31.373Z,26.13
2019-01-09T08:39:31.477Z,26.13
2019-01-09T08:40:31.429Z,26.15
2019-01-09T08:41:31.434Z,26.06
2019-01-09T08:42:31.586Z,26.12
2019-01-09T08:43:31.289Z,26.20
2019-01-09T08:44:31.290Z,26.17
2019-01-09T08:45:31.343Z,26.09
2019-01-09T08:46:31.349Z,26.18
2019-01-09T08:47:31.449Z,26.23
2019-01-09T08:48:31.306Z,26.12
2019-01-09T08:49:31.311Z,26.18
2019-01-09T08:50:31.457Z,26.23
2019-01-09T08:51:31.463Z,26.17
2019-01-09T08:52:32.610Z,26.21
2019-01-09T08:53:31.316Z,26.18
2019-01-09T08:54:31.425Z,26.23
2019-01-09T08:55:31.322Z,26.21
2019-01-09T08:56:31.625Z,26.18
2019-01-09T08:57:31.630Z,26.20
2019-01-09T08:58:31.330Z,26.18
2019-01-09T08:59:31.334Z,26.23
2019-01-09T09:00:32.190Z,26.21
2019-01-09T09:01:32.590Z,26.18
2019-01-09T09:02:32.296Z,26.25
2019-01-09T09:03:32.046Z,26.28
2019-01-09T09:04:32.049Z,26.21
2019-01-09T09:05:32.002Z,26.26
2019-01-09T09:06:31.755Z,26.23
2019-01-09T09:07:32.609Z,26.21
2019-01-09T09:08:31.609Z,26.23
2019-01-09T09:09:32.064Z,26.18
2019-01-09T09:10:31.926Z,26.26
2019-01-09T09:11:31.768Z,26.21
2019-01-09T09:12:31.723Z,26.25
2019-01-09T09:13:32.180Z,26.25
2019-01-09T09:14:32.527Z,26.21
2019-01-09T09:15:32.030Z,26.25
2019-01-09T09:16:36.621Z,26.25
2019-01-09T09:17:31.987Z,26.17
2019-01-09T09:18:31.440Z,26.26
2019-01-09T09:19:31.441Z,26.23
2019-01-09T09:20:31.443Z,26.26
2019-01-09T09:21:31.397Z,26.20
2019-01-09T09:22:31.749Z,26.20
2019-01-09T09:23:31.404Z,26.26
2019-01-09T09:24:31.404Z,26.17
2019-01-09T09:25:31.457Z,26.30
2019-01-09T09:26:31.560Z,26.33
2019-01-09T09:27:31.414Z,26.29
2019-01-09T09:28:31.415Z,26.28
2019-01-09T09:29:32.131Z,26.20
2019-01-09T09:30:31.472Z,26.20
2019-01-09T09:31:31.426Z,26.21
2019-01-09T09:32:31.425Z,26.29
2019-01-09T09:33:31.480Z,26.23
2019-01-09T09:34:31.434Z,26.30
2019-01-09T09:35:31.489Z,26.28
2019-01-09T09:36:31.543Z,26.36
2019-01-09T09:37:31.592Z,26.26
2019-01-09T09:38:31.446Z,26.28
2019-01-09T09:39:31.688Z,26.18
2019-01-09T09:40:31.452Z,26.21
2019-01-09T09:41:31.451Z,26.29
2019-01-09T09:42:31.658Z,26.25
2019-01-09T09:43:31.515Z,26.20
2019-01-09T09:44:31.518Z,26.18
2019-01-09T09:45:31.513Z,26.23
2019-01-09T09:46:31.516Z,26.20
2019-01-09T09:47:31.522Z,26.13
2019-01-09T09:48:31.475Z,26.23
2019-01-09T09:49:31.527Z,26.21
2019-01-09T09:50:31.732Z,26.17
2019-01-09T09:51:31.484Z,26.20
2019-01-09T09:52:32.036Z,26.17
2019-01-09T09:53:31.537Z,26.10
2019-01-09T09:54:31.493Z,26.17
2019-01-09T09:55:31.596Z,26.12
2019-01-09T09:56:31.547Z,26.12
2019-01-09T09:57:31.502Z,26.25
2019-01-09T09:58:31.655Z,26.21
2019-01-09T09:59:31.557Z,26.20
2019-01-09T10:00:31.509Z,26.18
2019-01-09T10:01:31.814Z,26.15
2019-01-09T10:02:32.469Z,26.13
2019-01-09T10:03:32.070Z,26.21
2019-01-09T10:04:32.329Z,26.25
2019-01-09T10:05:32.725Z,26.13
2019-01-09T10:06:32.128Z,26.10
2019-01-09T10:07:32.539Z,26.20
2019-01-09T10:08:32.384Z,26.09
2019-01-09T10:09:31.886Z,26.21
2019-01-09T10:10:32.040Z,26.06
2019-01-09T10:11:31.692Z,26.12
2019-01-09T10:12:31.847Z,26.13
2019-01-09T10:13:32.104Z,26.09
2019-01-09T10:14:32.251Z,26.15
2019-01-09T10:15:31.856Z,26.09
2019-01-09T10:16:32.507Z,26.10
2019-01-09T10:17:32.258Z,26.09
2019-01-09T10:18:31.911Z,26.12
2019-01-09T10:19:31.665Z,26.12
2019-01-09T10:20:31.567Z,26.06
2019-01-09T10:21:31.571Z,26.09
2019-01-09T10:22:31.673Z,26.12
2019-01-09T10:23:31.577Z,26.12
2019-01-09T10:24:31.579Z,26.13
2019-01-09T10:25:31.682Z,26.13
2019-01-09T10:26:31.636Z,26.06
2019-01-09T10:27:32.489Z,26.20
2019-01-09T10:28:31.841Z,26.23
2019-01-09T10:29:32.098Z,26.25
2019-01-09T10:30:31.747Z,26.25
2019-01-09T10:31:32.051Z,26.20
2019-01-09T10:32:32.754Z,26.23
2019-01-09T10:33:32.606Z,26.20
2019-01-09T10:34:31.962Z,26.25
2019-01-09T10:35:32.462Z,26.21
2019-01-09T10:36:32.219Z,26.21
2019-01-09T10:37:32.017Z,26.23
2019-01-09T10:38:37.932Z,26.25
2019-01-09T10:39:31.724Z,26.21
2019-01-09T10:40:36.265Z,26.29
2019-01-09T10:41:31.780Z,26.35
2019-01-09T10:42:31.834Z,26.30
2019-01-09T10:43:31.785Z,26.33
2019-01-09T10:44:31.736Z,26.36
2019-01-09T10:45:31.640Z,26.26
2019-01-09T10:46:31.750Z,26.36
2019-01-09T10:47:31.897Z,26.25
2019-01-09T10:48:31.799Z,26.25
2019-01-09T10:49:31.700Z,26.33
2019-01-09T10:50:31.656Z,26.25
2019-01-09T10:51:32.108Z,26.35
2019-01-09T10:52:31.962Z,26.36
2019-01-09T10:53:31.665Z,26.33
2019-01-09T10:54:31.669Z,26.32
2019-01-09T10:55:31.769Z,26.33
2019-01-09T10:56:31.883Z,26.23
2019-01-09T10:57:31.977Z,26.30
2019-01-09T10:58:31.678Z,26.20
2019-01-09T10:59:31.682Z,26.36
2019-01-09T11:00:32.334Z,26.36
2019-01-09T11:01:31.891Z,26.36
2019-01-09T11:02:32.006Z,26.39
2019-01-09T11:03:31.995Z,26.36
2019-01-09T11:04:32.149Z,26.33
2019-01-09T11:05:31.851Z,26.39
2019-01-09T11:06:31.854Z,26.32
2019-01-09T11:07:32.005Z,26.37
2019-01-09T11:08:31.764Z,26.36
2019-01-09T11:09:31.859Z,26.39
2019-01-09T11:10:31.715Z,26.36
2019-01-09T11:11:31.975Z,26.43
2019-01-09T11:12:31.769Z,26.45
2019-01-09T11:13:31.723Z,26.44
2019-01-09T11:14:31.731Z,26.39
2019-01-09T11:15:31.881Z,26.36
2019-01-09T11:16:31.741Z,26.35
2019-01-09T11:17:31.934Z,26.43
2019-01-09T11:18:31.839Z,26.45
2019-01-09T11:19:31.791Z,26.36
2019-01-09T11:20:31.943Z,26.39
2019-01-09T11:21:31.896Z,26.40
2019-01-09T11:22:31.750Z,26.45
2019-01-09T11:23:31.903Z,26.39
2019-01-09T11:24:31.755Z,26.37
2019-01-09T11:25:32.059Z,26.35
2019-01-09T11:26:31.761Z,26.39
2019-01-09T11:27:31.914Z,26.35
2019-01-09T11:28:31.826Z,26.39
2019-01-09T11:29:31.872Z,26.44
2019-01-09T11:30:31.825Z,26.44
2019-01-09T11:31:31.984Z,26.39
2019-01-09T11:32:32.129Z,26.37
2019-01-09T11:33:31.781Z,26.39
2019-01-09T11:34:31.786Z,26.44
2019-01-09T11:35:31.941Z,26.47
2019-01-09T11:36:31.791Z,26.39
2019-01-09T11:37:32.025Z,26.50
2019-01-09T11:38:31.797Z,26.47
2019-01-09T11:39:31.802Z,26.37
2019-01-09T11:40:31.953Z,26.39
2019-01-09T11:41:31.805Z,26.44
2019-01-09T11:42:31.809Z,26.44
2019-01-09T11:43:31.912Z,26.40
2019-01-09T11:44:31.817Z,26.39
2019-01-09T11:45:31.819Z,26.48
2019-01-09T11:46:31.825Z,26.44
2019-01-09T11:47:32.027Z,26.43
2019-01-09T11:48:31.827Z,26.50
2019-01-09T11:49:31.929Z,26.43
2019-01-09T11:50:31.833Z,26.45
2019-01-09T11:51:31.903Z,26.39
2019-01-09T11:52:31.838Z,26.43
2019-01-09T11:53:32.000Z,26.43
2019-01-09T11:54:31.852Z,26.44
2019-01-09T11:55:31.852Z,26.40
2019-01-09T11:56:32.051Z,26.43
2019-01-09T11:57:31.855Z,26.40
2019-01-09T11:58:31.857Z,26.43
2019-01-09T11:59:31.862Z,26.47
2019-01-09T12:00:32.014Z,26.40
2019-01-09T12:01:31.966Z,26.39
2019-01-09T12:02:31.918Z,26.48
2019-01-09T12:03:31.873Z,26.51
2019-01-09T12:04:32.442Z,26.55
2019-01-09T12:05:31.876Z,26.54
2019-01-09T12:06:31.983Z,26.48
2019-01-09T12:07:31.985Z,26.51
2019-01-09T12:08:31.889Z,26.39
2019-01-09T12:09:31.895Z,26.52
2019-01-09T12:10:31.946Z,26.47
2019-01-09T12:11:32.047Z,26.44
2019-01-09T12:12:31.999Z,26.50
2019-01-09T12:13:32.153Z,26.54
2019-01-09T12:14:31.906Z,26.52
2019-01-09T12:15:31.907Z,26.51
2019-01-09T12:16:32.013Z,26.44
2019-01-09T12:17:32.163Z,26.50
2019-01-09T12:18:32.018Z,26.47
2019-01-09T12:19:32.122Z,26.39
2019-01-09T12:20:31.973Z,26.35
2019-01-09T12:21:32.027Z,26.39
2019-01-09T12:22:31.931Z,26.36
2019-01-09T12:23:32.033Z,26.26
2019-01-09T12:24:32.086Z,26.28
2019-01-09T12:25:31.939Z,26.21
2019-01-09T12:26:31.943Z,26.21
2019-01-09T12:27:32.397Z,26.17
2019-01-09T12:28:31.949Z,26.10
2019-01-09T12:29:32.002Z,26.13
2019-01-09T12:30:32.456Z,25.92
2019-01-09T12:31:31.957Z,25.99
2019-01-09T12:32:32.061Z,26.05
2019-01-09T12:33:32.014Z,26.01
2019-01-09T12:34:32.116Z,26.01
2019-01-09T12:35:31.983Z,25.91
2019-01-09T12:36:32.023Z,25.88
2019-01-09T12:37:32.375Z,25.90
2019-01-09T12:38:32.007Z,25.85
2019-01-09T12:39:31.980Z,25.82
2019-01-09T12:40:32.086Z,25.88
2019-01-09T12:41:32.387Z,25.85
2019-01-09T12:42:32.440Z,25.88
2019-01-09T12:43:31.992Z,25.85
2019-01-09T12:44:32.150Z,25.92
2019-01-09T12:45:32.249Z,25.90
2019-01-09T12:46:32.101Z,25.94
2019-01-09T12:47:32.006Z,25.90
2019-01-09T12:48:32.057Z,26.05
2019-01-09T12:49:32.059Z,26.05
2019-01-09T12:50:32.112Z,26.05
2019-01-09T12:51:32.015Z,25.97
2019-01-09T12:52:32.018Z,25.98